createdAt,value
2023-01-30T00:02:12.003Z,25.63
2023-01-30T00:07:13.800Z,35.90
2023-01-30T00:12:22.012Z,28.80
2023-01-30T00:17:28.947Z,23.30
2023-01-30T00:22:31.053Z,22.63
2023-01-30T00:27:35.703Z,32.93
2023-01-30T00:32:40.187Z,25.53
2023-01-30T00:37:41.827Z,24.47
2023-01-30T00:43:06.854Z,25.83
2023-01-30T00:48:13.867Z,19.70
2023-01-30T00:53:16.534Z,20.10
2023-01-30T00:58:22.673Z,30.03
2023-01-30T01:03:24.400Z,24.10
2023-01-30T01:08:26.166Z,22.80
2023-01-30T01:13:30.832Z,28.53
2023-01-30T01:18:37.139Z,23.17
2023-01-30T01:23:39.047Z,20.93
2023-01-30T01:28:40.702Z,23.93
2023-01-30T01:33:49.072Z,24.00
2023-01-30T01:38:50.788Z,12.07
2023-01-30T01:44:04.858Z,20.97
2023-01-30T01:49:16.388Z,15.03
2023-01-30T01:54:32.989Z,15.17
2023-01-30T01:59:43.707Z,14.73
2023-01-30T02:05:04.996Z,12.83
2023-01-30T02:10:13.421Z,9.37
2023-01-30T02:15:18.499Z,8.07
2023-01-30T02:20:53.819Z,3.83
2023-01-30T02:26:01.849Z,4.47
2023-01-30T02:31:18.430Z,5.43
2023-01-30T02:36:28.620Z,5.73
2023-01-30T02:41:36.479Z,6.00
2023-01-30T02:46:44.337Z,6.23
2023-01-30T02:51:52.374Z,6.23
2023-01-30T02:56:57.986Z,6.17
2023-01-30T03:02:35.768Z,2.97
2023-01-30T03:07:54.497Z,3.43
2023-01-30T03:13:03.104Z,2.47
2023-01-30T03:18:05.705Z,3.17
2023-01-30T03:23:08.003Z,3.13
2023-01-30T03:28:15.149Z,3.50
2023-01-30T03:33:19.397Z,2.53
2023-01-30T03:38:25.368Z,3.10
2023-01-30T03:43:28.906Z,2.47
2023-01-30T03:48:30.688Z,2.87
2023-01-30T03:53:32.424Z,2.53
2023-01-30T03:58:34.211Z,2.90
2023-01-30T04:03:50.518Z,3.17
2023-01-30T04:08:53.778Z,2.67
2023-01-30T04:14:09.988Z,3.10
2023-01-30T04:19:24.835Z,3.50
2023-01-30T04:24:29.663Z,4.37
2023-01-30T04:29:31.739Z,3.20
2023-01-30T04:34:36.836Z,3.70
2023-01-30T04:39:43.439Z,4.67
2023-01-30T04:44:45.313Z,4.37
2023-01-30T04:49:51.715Z,4.23
2023-01-30T04:54:55.805Z,4.97
2023-01-30T05:00:00.259Z,3.30
2023-01-30T05:05:02.944Z,3.30
2023-01-30T05:10:05.268Z,3.10
2023-01-30T05:15:07.668Z,4.37
2023-01-30T05:20:15.221Z,3.40
2023-01-30T05:25:17.357Z,4.67
2023-01-30T05:30:21.793Z,5.83
2023-01-30T05:35:25.840Z,7.73
2023-01-30T05:40:29.857Z,8.63
2023-01-30T05:45:33.751Z,7.67
2023-01-30T05:50:40.210Z,8.80
2023-01-30T05:55:43.732Z,7.97
2023-01-30T06:00:47.678Z,8.00
2023-01-30T06:05:58.480Z,9.07
2023-01-30T06:11:09.078Z,5.37
2023-01-30T06:16:17.279Z,5.93
2023-01-30T06:21:22.901Z,8.00
2023-01-30T06:26:26.719Z,6.70
2023-01-30T06:31:33.560Z,7.10
2023-01-30T06:36:35.326Z,5.10
2023-01-30T06:41:41.959Z,6.73
2023-01-30T06:46:48.151Z,7.20
2023-01-30T06:51:49.848Z,6.97
2023-01-30T06:56:51.869Z,5.50
2023-01-30T07:01:56.236Z,6.53
2023-01-30T07:07:00.319Z,6.10
2023-01-30T07:12:04.648Z,6.03
2023-01-30T07:17:06.508Z,6.27
2023-01-30T07:22:10.603Z,4.70
2023-01-30T07:27:13.099Z,5.63
2023-01-30T07:32:18.515Z,8.43
2023-01-30T07:37:20.237Z,7.03
2023-01-30T07:42:24.417Z,6.17
2023-01-30T07:47:30.956Z,7.17
2023-01-30T07:52:34.907Z,5.60
2023-01-30T07:57:38.263Z,7.57
2023-01-30T08:02:39.928Z,6.43
2023-01-30T08:07:47.427Z,5.83
2023-01-30T08:12:52.016Z,6.13
2023-01-30T08:17:57.046Z,5.47
2023-01-30T08:23:02.331Z,6.33
2023-01-30T08:28:07.217Z,4.03
2023-01-30T08:33:16.416Z,7.43
2023-01-30T08:38:18.796Z,6.67
2023-01-30T08:43:21.055Z,6.13
2023-01-30T08:48:24.031Z,4.67
2023-01-30T08:53:27.974Z,6.23
2023-01-30T08:58:29.700Z,6.23
2023-01-30T09:03:32.810Z,5.03
2023-01-30T09:08:37.457Z,5.53
2023-01-30T09:13:43.513Z,3.87
2023-01-30T09:18:45.481Z,4.43
2023-01-30T09:23:49.614Z,3.33
2023-01-30T09:28:53.685Z,5.57
2023-01-30T09:33:55.433Z,6.07
2023-01-30T09:38:57.144Z,4.40
2023-01-30T09:43:59.567Z,5.87
2023-01-30T09:49:32.438Z,4.77
2023-01-30T09:54:37.037Z,5.73
2023-01-30T09:59:48.405Z,6.23
2023-01-30T10:05:01.387Z,5.77
2023-01-30T10:10:21.902Z,6.43
2023-01-30T10:16:03.930Z,5.57
2023-01-30T10:21:23.843Z,5.00
2023-01-30T10:26:28.716Z,1.10
2023-01-30T10:31:37.339Z,1.83
2023-01-30T10:37:05.107Z,2.47
2023-01-30T10:42:14.563Z,3.50
2023-01-30T10:47:53.974Z,4.40
2023-01-30T10:53:11.834Z,3.77
2023-01-30T10:58:35.944Z,4.37
2023-01-30T11:03:57.243Z,2.03
2023-01-30T11:09:02.336Z,3.13
2023-01-30T11:14:08.389Z,4.07
2023-01-30T11:19:20.779Z,4.30
2023-01-30T11:24:33.574Z,7.23
2023-01-30T11:29:44.381Z,6.43
2023-01-30T11:35:22.295Z,7.60
2023-01-30T11:40:27.976Z,6.03
2023-01-30T11:45:33.743Z,6.57
2023-01-30T11:50:45.360Z,4.07
2023-01-30T11:56:05.429Z,3.33
2023-01-30T12:01:11.220Z,3.33
2023-01-30T12:06:22.504Z,4.33
2023-01-30T12:11:44.792Z,4.60
2023-01-30T12:16:46.489Z,5.03
2023-01-30T12:22:04.778Z,4.30
2023-01-30T12:27:23.740Z,6.13
2023-01-30T12:32:32.198Z,4.83
2023-01-30T12:37:46.161Z,4.63
2023-01-30T12:43:06.664Z,4.70
2023-01-30T12:48:13.939Z,5.93
2023-01-30T12:53:48.200Z,5.97
2023-01-30T12:59:15.880Z,5.13
2023-01-30T13:04:23.609Z,6.20
2023-01-30T13:09:58.679Z,7.13
2023-01-30T13:15:10.238Z,6.80
2023-01-30T13:20:18.130Z,6.20
2023-01-30T13:25:42.932Z,5.87
2023-01-30T13:30:51.941Z,5.50
2023-01-30T13:36:09.039Z,6.47
2023-01-30T13:41:17.622Z,5.90
2023-01-30T13:46:26.931Z,6.43
2023-01-30T13:52:10.219Z,7.13
2023-01-30T13:57:44.077Z,6.80
2023-01-30T14:03:06.106Z,7.67
2023-01-30T14:08:12.646Z,8.73
2023-01-30T14:13:17.729Z,7.67
2023-01-30T14:18:36.273Z,7.00
2023-01-30T14:23:42.009Z,5.83
2023-01-30T14:28:47.554Z,5.53
2023-01-30T14:33:50.516Z,6.50
2023-01-30T14:39:38.902Z,5.37
2023-01-30T14:45:02.931Z,7.13
2023-01-30T14:50:22.276Z,5.97
2023-01-30T14:55:29.589Z,7.27
2023-01-30T15:00:36.790Z,6.27
2023-01-30T15:05:44.104Z,5.70
2023-01-30T15:11:06.459Z,4.47
2023-01-30T15:16:33.864Z,5.27
2023-01-30T15:21:46.679Z,4.90
2023-01-30T15:27:00.105Z,5.87
2023-01-30T15:32:15.166Z,6.60
2023-01-30T15:37:38.889Z,5.90
2023-01-30T15:43:01.183Z,5.03
2023-01-30T15:48:28.608Z,5.30
2023-01-30T15:53:41.323Z,5.30
2023-01-30T15:58:47.442Z,4.87
2023-01-30T16:03:57.866Z,5.10
2023-01-30T16:09:08.376Z,4.80
2023-01-30T16:14:20.151Z,4.13
2023-01-30T16:19:26.564Z,3.63
2023-01-30T16:24:33.293Z,4.90
2023-01-30T16:29:51.106Z,4.87
2023-01-30T16:35:27.208Z,4.83
2023-01-30T16:40:43.320Z,5.10
2023-01-30T16:45:54.569Z,6.03
2023-01-30T16:50:59.458Z,4.30
2023-01-30T16:56:04.286Z,6.97
2023-01-30T17:01:08.091Z,6.67
2023-01-30T17:06:35.890Z,7.03
2023-01-30T17:11:43.162Z,6.37
2023-01-30T17:16:46.252Z,6.67
2023-01-30T17:21:51.660Z,5.93
2023-01-30T17:26:59.068Z,5.37
2023-01-30T17:32:08.857Z,4.80
2023-01-30T17:37:23.020Z,5.13
2023-01-30T17:42:27.054Z,5.27
2023-01-30T17:47:29.067Z,6.47
2023-01-30T17:52:30.764Z,5.73
2023-01-30T17:57:34.835Z,5.93
2023-01-30T18:02:36.652Z,5.77
2023-01-30T18:07:39.318Z,5.40
2023-01-30T18:12:45.502Z,4.40
2023-01-30T18:17:50.704Z,5.10
2023-01-30T18:22:54.964Z,5.23
2023-01-30T18:27:59.140Z,5.73
2023-01-30T18:33:00.963Z,6.85
2023-01-30T18:43:29.269Z,6.67
2023-01-30T18:48:34.455Z,5.87
2023-01-30T18:53:39.625Z,5.40
2023-01-30T18:58:42.033Z,4.90
2023-01-30T19:03:53.165Z,4.00
2023-01-30T19:08:57.833Z,4.83
2023-01-30T19:14:02.130Z,4.60
2023-01-30T19:19:05.073Z,4.60
2023-01-30T19:24:10.858Z,4.13
2023-01-30T19:29:12.816Z,4.63
2023-01-30T19:34:17.789Z,4.80
2023-01-30T19:39:25.302Z,6.10
2023-01-30T19:44:27.179Z,5.77
2023-01-30T19:49:46.496Z,6.20
2023-01-30T19:54:48.491Z,5.17
2023-01-30T19:59:50.492Z,6.17
2023-01-30T20:04:52.301Z,7.83
2023-01-30T20:09:57.055Z,5.73
2023-01-30T20:14:59.220Z,6.23
2023-01-30T20:20:01.079Z,6.60
2023-01-30T20:25:03.765Z,5.50
2023-01-30T20:30:08.401Z,6.37
2023-01-30T20:35:19.963Z,6.20
2023-01-30T20:40:21.980Z,5.17
2023-01-30T20:45:24.184Z,5.00
2023-01-30T20:50:27.544Z,5.23
2023-01-30T20:55:31.760Z,5.90
2023-01-30T21:00:37.060Z,4.90
2023-01-30T21:05:39.397Z,5.57
2023-01-30T21:10:46.686Z,5.03
2023-01-30T21:16:01.947Z,5.60
2023-01-30T21:21:05.950Z,6.23
2023-01-30T21:26:11.542Z,5.37
2023-01-30T21:31:17.900Z,5.80
2023-01-30T21:36:19.700Z,5.10
2023-01-30T21:41:50.944Z,4.83
2023-01-30T21:46:57.200Z,5.20
2023-01-30T21:51:59.133Z,5.53
2023-01-30T21:57:00.838Z,5.20
2023-01-30T22:02:03.583Z,5.30
2023-01-30T22:07:07.679Z,5.10
2023-01-30T22:12:14.693Z,4.83
2023-01-30T22:17:19.927Z,5.20
2023-01-30T22:22:27.009Z,5.07
2023-01-30T22:27:29.747Z,4.80
2023-01-30T22:32:31.706Z,4.87
2023-01-30T22:37:39.504Z,5.77
2023-01-30T22:42:50.558Z,6.13
2023-01-30T22:47:56.943Z,7.23
2023-01-30T22:53:00.772Z,5.30
2023-01-30T22:58:07.847Z,5.17
2023-01-30T23:03:11.928Z,4.77
2023-01-30T23:08:15.739Z,4.50
2023-01-30T23:13:19.801Z,5.50
2023-01-30T23:18:45.607Z,5.47
2023-01-30T23:23:47.517Z,5.20
2023-01-30T23:28:49.653Z,5.67
2023-01-30T23:33:55.660Z,5.03
2023-01-30T23:38:58.941Z,5.83
2023-01-30T23:44:01.178Z,5.37
2023-01-30T23:49:15.476Z,5.13
2023-01-30T23:54:19.706Z,5.13
2023-01-30T23:59:21.912Z,5.13
